sensor_id;sensor_type;location;lat;lon;timestamp;P1;durP1;ratioP1;P2;durP2;ratioP2
40244;SDS011;25963;42.694;23.600;2023-05-24T00:00:53;12.07;;;6.95;;
40244;SDS011;25963;42.694;23.600;2023-05-24T00:03:25;10.45;;;6.88;;
40244;SDS011;25963;42.694;23.600;2023-05-24T00:08:37;9.98;;;6.60;;
40244;SDS011;25963;42.694;23.600;2023-05-24T00:11:02;9.52;;;7.50;;
40244;SDS011;25963;42.694;23.600;2023-05-24T00:13:28;7.68;;;6.72;;
40244;SDS011;25963;42.694;23.600;2023-05-24T00:15:53;9.18;;;7.13;;
40244;SDS011;25963;42.694;23.600;2023-05-24T00:18:19;11.85;;;6.78;;
40244;SDS011;25963;42.694;23.600;2023-05-24T00:20:44;14.30;;;6.30;;
40244;SDS011;25963;42.694;23.600;2023-05-24T00:23:10;9.05;;;6.50;;
40244;SDS011;25963;42.694;23.600;2023-05-24T00:25:35;9.98;;;6.75;;
40244;SDS011;25963;42.694;23.600;2023-05-24T00:28:00;8.35;;;6.63;;
40244;SDS011;25963;42.694;23.600;2023-05-24T00:30:26;8.07;;;6.00;;
40244;SDS011;25963;42.694;23.600;2023-05-24T00:32:52;10.50;;;6.47;;
40244;SDS011;25963;42.694;23.600;2023-05-24T00:35:17;10.00;;;5.75;;
40244;SDS011;25963;42.694;23.600;2023-05-24T00:37:43;8.65;;;5.93;;
40244;SDS011;25963;42.694;23.600;2023-05-24T00:40:12;9.77;;;6.13;;
40244;SDS011;25963;42.694;23.600;2023-05-24T00:42:38;8.82;;;6.03;;
40244;SDS011;25963;42.694;23.600;2023-05-24T00:45:03;9.68;;;6.97;;
40244;SDS011;25963;42.694;23.600;2023-05-24T00:47:29;7.47;;;6.30;;
40244;SDS011;25963;42.694;23.600;2023-05-24T00:49:55;11.27;;;5.85;;
40244;SDS011;25963;42.694;23.600;2023-05-24T00:52:21;13.50;;;6.82;;
40244;SDS011;25963;42.694;23.600;2023-05-24T00:54:47;8.52;;;6.15;;
40244;SDS011;25963;42.694;23.600;2023-05-24T00:57:12;12.32;;;6.20;;
40244;SDS011;25963;42.694;23.600;2023-05-24T00:59:39;6.50;;;5.75;;
40244;SDS011;25963;42.694;23.600;2023-05-24T01:02:05;8.50;;;6.18;;
40244;SDS011;25963;42.694;23.600;2023-05-24T01:04:30;10.13;;;6.50;;
40244;SDS011;25963;42.694;23.600;2023-05-24T01:18:19;8.32;;;6.35;;
40244;SDS011;25963;42.694;23.600;2023-05-24T01:20:59;8.57;;;6.88;;
40244;SDS011;25963;42.694;23.600;2023-05-24T01:29:37;11.85;;;7.18;;
40244;SDS011;25963;42.694;23.600;2023-05-24T01:32:03;8.60;;;7.07;;
40244;SDS011;25963;42.694;23.600;2023-05-24T01:34:29;10.80;;;6.43;;
40244;SDS011;25963;42.694;23.600;2023-05-24T01:36:55;9.90;;;7.25;;
40244;SDS011;25963;42.694;23.600;2023-05-24T01:39:21;7.53;;;6.72;;
40244;SDS011;25963;42.694;23.600;2023-05-24T01:44:55;8.77;;;6.60;;
40244;SDS011;25963;42.694;23.600;2023-05-24T01:47:29;10.95;;;6.50;;
40244;SDS011;25963;42.694;23.600;2023-05-24T01:50:05;7.85;;;6.50;;
40244;SDS011;25963;42.694;23.600;2023-05-24T01:52:36;6.57;;;5.85;;
40244;SDS011;25963;42.694;23.600;2023-05-24T01:55:02;7.57;;;6.03;;
40244;SDS011;25963;42.694;23.600;2023-05-24T01:57:31;8.40;;;6.57;;
40244;SDS011;25963;42.694;23.600;2023-05-24T01:59:59;9.10;;;6.55;;
40244;SDS011;25963;42.694;23.600;2023-05-24T02:02:29;8.25;;;6.15;;
40244;SDS011;25963;42.694;23.600;2023-05-24T02:04:55;8.05;;;6.20;;
40244;SDS011;25963;42.694;23.600;2023-05-24T02:07:21;7.90;;;6.15;;
40244;SDS011;25963;42.694;23.600;2023-05-24T02:09:46;9.32;;;6.05;;
40244;SDS011;25963;42.694;23.600;2023-05-24T02:12:12;12.05;;;8.07;;
40244;SDS011;25963;42.694;23.600;2023-05-24T02:14:40;8.60;;;6.18;;
40244;SDS011;25963;42.694;23.600;2023-05-24T02:17:06;15.90;;;8.80;;
40244;SDS011;25963;42.694;23.600;2023-05-24T02:19:39;18.90;;;14.02;;
40244;SDS011;25963;42.694;23.600;2023-05-24T02:22:15;21.27;;;13.80;;
40244;SDS011;25963;42.694;23.600;2023-05-24T02:24:40;15.60;;;10.48;;
40244;SDS011;25963;42.694;23.600;2023-05-24T02:27:10;18.08;;;9.13;;
40244;SDS011;25963;42.694;23.600;2023-05-24T02:29:38;12.15;;;9.35;;
40244;SDS011;25963;42.694;23.600;2023-05-24T02:32:05;9.90;;;6.70;;
40244;SDS011;25963;42.694;23.600;2023-05-24T02:34:31;9.57;;;6.65;;
40244;SDS011;25963;42.694;23.600;2023-05-24T02:37:04;7.60;;;5.63;;
40244;SDS011;25963;42.694;23.600;2023-05-24T02:39:30;9.63;;;7.25;;
40244;SDS011;25963;42.694;23.600;2023-05-24T02:41:55;12.70;;;6.35;;
40244;SDS011;25963;42.694;23.600;2023-05-24T02:44:21;10.68;;;7.70;;
40244;SDS011;25963;42.694;23.600;2023-05-24T02:46:46;22.88;;;14.27;;
40244;SDS011;25963;42.694;23.600;2023-05-24T02:49:12;26.15;;;15.65;;
40244;SDS011;25963;42.694;23.600;2023-05-24T02:51:43;32.97;;;19.35;;
40244;SDS011;25963;42.694;23.600;2023-05-24T02:54:09;24.65;;;14.00;;
40244;SDS011;25963;42.694;23.600;2023-05-24T02:56:34;23.05;;;12.93;;
40244;SDS011;25963;42.694;23.600;2023-05-24T02:59:04;17.08;;;9.70;;
40244;SDS011;25963;42.694;23.600;2023-05-24T03:01:29;10.30;;;7.30;;
40244;SDS011;25963;42.694;23.600;2023-05-24T03:03:55;10.70;;;6.20;;
40244;SDS011;25963;42.694;23.600;2023-05-24T03:06:20;10.50;;;6.97;;
40244;SDS011;25963;42.694;23.600;2023-05-24T03:08:46;15.18;;;7.18;;
40244;SDS011;25963;42.694;23.600;2023-05-24T03:11:13;10.00;;;5.97;;
40244;SDS011;25963;42.694;23.600;2023-05-24T03:13:39;9.25;;;6.45;;
40244;SDS011;25963;42.694;23.600;2023-05-24T03:16:05;13.63;;;6.50;;
40244;SDS011;25963;42.694;23.600;2023-05-24T03:18:30;10.40;;;6.80;;
40244;SDS011;25963;42.694;23.600;2023-05-24T03:20:58;9.77;;;7.03;;
40244;SDS011;25963;42.694;23.600;2023-05-24T03:23:24;6.85;;;6.15;;
40244;SDS011;25963;42.694;23.600;2023-05-24T03:25:49;9.18;;;6.45;;
40244;SDS011;25963;42.694;23.600;2023-05-24T03:28:15;8.43;;;6.10;;
40244;SDS011;25963;42.694;23.600;2023-05-24T03:30:40;11.30;;;7.07;;
40244;SDS011;25963;42.694;23.600;2023-05-24T03:33:06;8.25;;;6.47;;
40244;SDS011;25963;42.694;23.600;2023-05-24T03:35:34;9.00;;;6.60;;
40244;SDS011;25963;42.694;23.600;2023-05-24T03:38:00;10.18;;;7.07;;
40244;SDS011;25963;42.694;23.600;2023-05-24T03:40:28;17.02;;;10.40;;
40244;SDS011;25963;42.694;23.600;2023-05-24T03:42:56;24.70;;;14.43;;
40244;SDS011;25963;42.694;23.600;2023-05-24T03:45:22;73.05;;;35.95;;
40244;SDS011;25963;42.694;23.600;2023-05-24T03:47:50;60.55;;;29.17;;
40244;SDS011;25963;42.694;23.600;2023-05-24T03:50:16;57.65;;;28.90;;
40244;SDS011;25963;42.694;23.600;2023-05-24T03:52:42;55.60;;;27.75;;
40244;SDS011;25963;42.694;23.600;2023-05-24T03:55:07;11.75;;;8.80;;
40244;SDS011;25963;42.694;23.600;2023-05-24T03:57:36;33.33;;;19.02;;
40244;SDS011;25963;42.694;23.600;2023-05-24T04:00:28;38.92;;;20.05;;
40244;SDS011;25963;42.694;23.600;2023-05-24T04:02:54;13.38;;;8.60;;
40244;SDS011;25963;42.694;23.600;2023-05-24T04:05:20;83.88;;;45.55;;
40244;SDS011;25963;42.694;23.600;2023-05-24T04:07:45;101.07;;;52.63;;
40244;SDS011;25963;42.694;23.600;2023-05-24T04:10:11;57.55;;;32.35;;
40244;SDS011;25963;42.694;23.600;2023-05-24T04:12:39;12.57;;;6.10;;
40244;SDS011;25963;42.694;23.600;2023-05-24T04:17:54;88.78;;;54.15;;
40244;SDS011;25963;42.694;23.600;2023-05-24T04:20:25;31.10;;;22.55;;
40244;SDS011;25963;42.694;23.600;2023-05-24T04:22:52;11.25;;;8.73;;
40244;SDS011;25963;42.694;23.600;2023-05-24T04:25:18;17.85;;;13.40;;
40244;SDS011;25963;42.694;23.600;2023-05-24T04:27:47;21.38;;;15.65;;
40244;SDS011;25963;42.694;23.600;2023-05-24T04:30:13;12.85;;;8.98;;
40244;SDS011;25963;42.694;23.600;2023-05-24T04:32:42;8.30;;;6.65;;
40244;SDS011;25963;42.694;23.600;2023-05-24T04:35:10;7.53;;;5.20;;
40244;SDS011;25963;42.694;23.600;2023-05-24T04:37:36;6.97;;;6.25;;
40244;SDS011;25963;42.694;23.600;2023-05-24T04:40:02;4.65;;;4.25;;
40244;SDS011;25963;42.694;23.600;2023-05-24T04:42:28;6.53;;;5.75;;
40244;SDS011;25963;42.694;23.600;2023-05-24T04:44:55;6.00;;;5.28;;
40244;SDS011;25963;42.694;23.600;2023-05-24T04:47:21;6.43;;;4.57;;
40244;SDS011;25963;42.694;23.600;2023-05-24T04:49:46;4.63;;;4.20;;
40244;SDS011;25963;42.694;23.600;2023-05-24T04:52:12;4.38;;;3.97;;
40244;SDS011;25963;42.694;23.600;2023-05-24T04:54:37;15.10;;;9.63;;
40244;SDS011;25963;42.694;23.600;2023-05-24T04:57:02;7.90;;;6.13;;
40244;SDS011;25963;42.694;23.600;2023-05-24T04:59:28;8.13;;;4.93;;
40244;SDS011;25963;42.694;23.600;2023-05-24T05:01:54;50.15;;;28.75;;
40244;SDS011;25963;42.694;23.600;2023-05-24T05:04:20;21.05;;;13.05;;
40244;SDS011;25963;42.694;23.600;2023-05-24T05:06:45;5.88;;;4.85;;
40244;SDS011;25963;42.694;23.600;2023-05-24T05:09:12;21.33;;;14.13;;
40244;SDS011;25963;42.694;23.600;2023-05-24T05:11:38;7.18;;;6.28;;
40244;SDS011;25963;42.694;23.600;2023-05-24T05:14:04;6.57;;;5.97;;
40244;SDS011;25963;42.694;23.600;2023-05-24T05:16:30;7.03;;;5.78;;
40244;SDS011;25963;42.694;23.600;2023-05-24T05:18:56;5.93;;;5.28;;
40244;SDS011;25963;42.694;23.600;2023-05-24T05:21:21;5.72;;;4.60;;
40244;SDS011;25963;42.694;23.600;2023-05-24T05:23:47;5.65;;;5.13;;
40244;SDS011;25963;42.694;23.600;2023-05-24T05:26:12;7.90;;;5.47;;
40244;SDS011;25963;42.694;23.600;2023-05-24T05:28:38;6.25;;;5.38;;
40244;SDS011;25963;42.694;23.600;2023-05-24T05:31:03;7.88;;;6.10;;
40244;SDS011;25963;42.694;23.600;2023-05-24T05:33:32;9.43;;;5.95;;
40244;SDS011;25963;42.694;23.600;2023-05-24T05:35:57;7.47;;;5.88;;
40244;SDS011;25963;42.694;23.600;2023-05-24T05:38:24;13.20;;;6.95;;
40244;SDS011;25963;42.694;23.600;2023-05-24T05:40:51;9.38;;;6.63;;
40244;SDS011;25963;42.694;23.600;2023-05-24T05:43:16;9.13;;;6.35;;
40244;SDS011;25963;42.694;23.600;2023-05-24T05:45:42;12.85;;;10.93;;
40244;SDS011;25963;42.694;23.600;2023-05-24T05:48:07;7.80;;;6.45;;
40244;SDS011;25963;42.694;23.600;2023-05-24T05:50:35;8.40;;;7.35;;
40244;SDS011;25963;42.694;23.600;2023-05-24T05:53:06;11.50;;;9.55;;
40244;SDS011;25963;42.694;23.600;2023-05-24T05:55:31;8.10;;;7.03;;
40244;SDS011;25963;42.694;23.600;2023-05-24T05:57:57;10.13;;;7.43;;
40244;SDS011;25963;42.694;23.600;2023-05-24T06:00:22;9.02;;;7.35;;
40244;SDS011;25963;42.694;23.600;2023-05-24T06:02:48;11.75;;;7.00;;
40244;SDS011;25963;42.694;23.600;2023-05-24T06:05:13;8.57;;;7.78;;
40244;SDS011;25963;42.694;23.600;2023-05-24T06:07:42;9.35;;;8.27;;
40244;SDS011;25963;42.694;23.600;2023-05-24T06:10:26;9.30;;;7.07;;
40244;SDS011;25963;42.694;23.600;2023-05-24T06:12:51;11.30;;;7.95;;
40244;SDS011;25963;42.694;23.600;2023-05-24T06:15:23;10.98;;;7.43;;
40244;SDS011;25963;42.694;23.600;2023-05-24T06:17:48;8.07;;;7.03;;
40244;SDS011;25963;42.694;23.600;2023-05-24T06:20:15;9.23;;;7.57;;
40244;SDS011;25963;42.694;23.600;2023-05-24T06:22:41;9.73;;;7.18;;
40244;SDS011;25963;42.694;23.600;2023-05-24T06:25:24;10.77;;;6.88;;
40244;SDS011;25963;42.694;23.600;2023-05-24T06:27:51;7.60;;;6.60;;
40244;SDS011;25963;42.694;23.600;2023-05-24T06:30:40;7.75;;;6.57;;
40244;SDS011;25963;42.694;23.600;2023-05-24T06:33:06;9.75;;;6.85;;
40244;SDS011;25963;42.694;23.600;2023-05-24T06:35:31;7.10;;;6.40;;
40244;SDS011;25963;42.694;23.600;2023-05-24T06:37:57;7.88;;;7.07;;
40244;SDS011;25963;42.694;23.600;2023-05-24T06:40:24;9.65;;;7.30;;
40244;SDS011;25963;42.694;23.600;2023-05-24T06:42:49;11.90;;;6.95;;
40244;SDS011;25963;42.694;23.600;2023-05-24T06:45:15;8.25;;;7.45;;
40244;SDS011;25963;42.694;23.600;2023-05-24T06:47:43;10.80;;;6.95;;
40244;SDS011;25963;42.694;23.600;2023-05-24T06:50:10;7.63;;;6.60;;
40244;SDS011;25963;42.694;23.600;2023-05-24T06:52:42;12.88;;;7.13;;
40244;SDS011;25963;42.694;23.600;2023-05-24T06:55:08;12.60;;;7.55;;
40244;SDS011;25963;42.694;23.600;2023-05-24T06:57:33;8.70;;;6.97;;
40244;SDS011;25963;42.694;23.600;2023-05-24T06:59:59;8.80;;;7.25;;
40244;SDS011;25963;42.694;23.600;2023-05-24T07:02:25;7.95;;;6.75;;
40244;SDS011;25963;42.694;23.600;2023-05-24T07:04:52;8.48;;;7.60;;
40244;SDS011;25963;42.694;23.600;2023-05-24T07:07:18;10.38;;;8.02;;
40244;SDS011;25963;42.694;23.600;2023-05-24T07:09:44;11.35;;;7.32;;
40244;SDS011;25963;42.694;23.600;2023-05-24T07:12:10;10.85;;;8.07;;
40244;SDS011;25963;42.694;23.600;2023-05-24T07:14:36;10.65;;;7.97;;
40244;SDS011;25963;42.694;23.600;2023-05-24T07:17:01;12.82;;;7.53;;
40244;SDS011;25963;42.694;23.600;2023-05-24T07:19:26;10.20;;;7.75;;
40244;SDS011;25963;42.694;23.600;2023-05-24T07:21:54;9.05;;;7.75;;
40244;SDS011;25963;42.694;23.600;2023-05-24T07:24:20;10.15;;;8.00;;
40244;SDS011;25963;42.694;23.600;2023-05-24T07:26:46;7.63;;;6.80;;
40244;SDS011;25963;42.694;23.600;2023-05-24T07:29:13;8.40;;;7.60;;
40244;SDS011;25963;42.694;23.600;2023-05-24T07:31:38;6.80;;;6.10;;
40244;SDS011;25963;42.694;23.600;2023-05-24T07:34:03;9.25;;;7.50;;
40244;SDS011;25963;42.694;23.600;2023-05-24T07:36:29;7.63;;;6.93;;
40244;SDS011;25963;42.694;23.600;2023-05-24T07:38:57;8.10;;;6.68;;
40244;SDS011;25963;42.694;23.600;2023-05-24T07:41:26;8.02;;;6.45;;
40244;SDS011;25963;42.694;23.600;2023-05-24T07:43:55;7.97;;;6.80;;
40244;SDS011;25963;42.694;23.600;2023-05-24T07:46:20;9.30;;;6.53;;
40244;SDS011;25963;42.694;23.600;2023-05-24T07:48:46;8.55;;;6.55;;
40244;SDS011;25963;42.694;23.600;2023-05-24T07:51:12;8.07;;;5.65;;
40244;SDS011;25963;42.694;23.600;2023-05-24T07:53:37;8.25;;;5.95;;
40244;SDS011;25963;42.694;23.600;2023-05-24T07:56:04;7.53;;;6.28;;
40244;SDS011;25963;42.694;23.600;2023-05-24T07:58:31;6.03;;;5.43;;
40244;SDS011;25963;42.694;23.600;2023-05-24T08:00:57;9.48;;;6.18;;
40244;SDS011;25963;42.694;23.600;2023-05-24T08:03:23;7.47;;;5.97;;
40244;SDS011;25963;42.694;23.600;2023-05-24T08:05:49;7.28;;;5.97;;
40244;SDS011;25963;42.694;23.600;2023-05-24T08:08:15;7.40;;;6.13;;
40244;SDS011;25963;42.694;23.600;2023-05-24T08:10:41;8.05;;;7.05;;
40244;SDS011;25963;42.694;23.600;2023-05-24T08:13:06;9.57;;;6.97;;
40244;SDS011;25963;42.694;23.600;2023-05-24T08:15:32;10.38;;;6.38;;
40244;SDS011;25963;42.694;23.600;2023-05-24T08:17:57;12.93;;;6.68;;
40244;SDS011;25963;42.694;23.600;2023-05-24T08:20:23;7.75;;;6.10;;
40244;SDS011;25963;42.694;23.600;2023-05-24T08:22:49;7.85;;;5.90;;
40244;SDS011;25963;42.694;23.600;2023-05-24T08:25:14;9.55;;;6.07;;
40244;SDS011;25963;42.694;23.600;2023-05-24T08:27:40;6.75;;;5.32;;
40244;SDS011;25963;42.694;23.600;2023-05-24T08:30:05;8.02;;;5.75;;
40244;SDS011;25963;42.694;23.600;2023-05-24T08:32:32;6.53;;;5.38;;
40244;SDS011;25963;42.694;23.600;2023-05-24T08:34:58;10.13;;;5.95;;
40244;SDS011;25963;42.694;23.600;2023-05-24T08:37:24;7.32;;;5.55;;
40244;SDS011;25963;42.694;23.600;2023-05-24T08:39:49;11.38;;;5.75;;
40244;SDS011;25963;42.694;23.600;2023-05-24T08:42:19;6.38;;;5.60;;
40244;SDS011;25963;42.694;23.600;2023-05-24T08:44:54;7.60;;;4.85;;
40244;SDS011;25963;42.694;23.600;2023-05-24T08:47:26;12.10;;;5.85;;
40244;SDS011;25963;42.694;23.600;2023-05-24T08:49:54;8.35;;;5.30;;
40244;SDS011;25963;42.694;23.600;2023-05-24T08:52:21;7.55;;;4.75;;
40244;SDS011;25963;42.694;23.600;2023-05-24T08:54:47;7.07;;;4.72;;
40244;SDS011;25963;42.694;23.600;2023-05-24T08:57:14;6.07;;;4.72;;
40244;SDS011;25963;42.694;23.600;2023-05-24T08:59:40;7.13;;;4.32;;
40244;SDS011;25963;42.694;23.600;2023-05-24T09:02:07;6.57;;;3.95;;
40244;SDS011;25963;42.694;23.600;2023-05-24T09:04:36;5.93;;;3.95;;
40244;SDS011;25963;42.694;23.600;2023-05-24T09:07:04;4.68;;;3.85;;
40244;SDS011;25963;42.694;23.600;2023-05-24T09:09:33;6.70;;;3.80;;
40244;SDS011;25963;42.694;23.600;2023-05-24T09:12:03;3.90;;;3.50;;
40244;SDS011;25963;42.694;23.600;2023-05-24T09:14:29;6.18;;;3.10;;
40244;SDS011;25963;42.694;23.600;2023-05-24T09:16:58;6.68;;;3.08;;
40244;SDS011;25963;42.694;23.600;2023-05-24T09:19:24;3.95;;;3.55;;
40244;SDS011;25963;42.694;23.600;2023-05-24T09:21:51;6.82;;;3.47;;
40244;SDS011;25963;42.694;23.600;2023-05-24T09:24:18;3.75;;;3.00;;
40244;SDS011;25963;42.694;23.600;2023-05-24T09:26:47;5.47;;;3.15;;
40244;SDS011;25963;42.694;23.600;2023-05-24T09:29:14;3.53;;;3.15;;
40244;SDS011;25963;42.694;23.600;2023-05-24T09:31:40;5.75;;;3.50;;
40244;SDS011;25963;42.694;23.600;2023-05-24T09:34:12;3.03;;;2.72;;
40244;SDS011;25963;42.694;23.600;2023-05-24T09:36:40;6.75;;;3.33;;
40244;SDS011;25963;42.694;23.600;2023-05-24T09:39:08;5.80;;;3.60;;
40244;SDS011;25963;42.694;23.600;2023-05-24T09:41:35;6.22;;;2.90;;
40244;SDS011;25963;42.694;23.600;2023-05-24T09:44:01;6.65;;;3.30;;
40244;SDS011;25963;42.694;23.600;2023-05-24T09:46:27;5.30;;;3.08;;
40244;SDS011;25963;42.694;23.600;2023-05-24T09:49:00;5.30;;;3.20;;
40244;SDS011;25963;42.694;23.600;2023-05-24T09:51:28;4.95;;;3.30;;
40244;SDS011;25963;42.694;23.600;2023-05-24T09:53:55;5.05;;;3.38;;
40244;SDS011;25963;42.694;23.600;2023-05-24T09:56:21;6.32;;;3.53;;
40244;SDS011;25963;42.694;23.600;2023-05-24T09:58:47;6.38;;;3.22;;
40244;SDS011;25963;42.694;23.600;2023-05-24T10:01:13;5.00;;;3.40;;
40244;SDS011;25963;42.694;23.600;2023-05-24T10:03:56;5.43;;;3.63;;
40244;SDS011;25963;42.694;23.600;2023-05-24T10:06:23;5.85;;;3.80;;
40244;SDS011;25963;42.694;23.600;2023-05-24T10:08:49;7.03;;;3.17;;
40244;SDS011;25963;42.694;23.600;2023-05-24T10:11:16;5.30;;;3.45;;
40244;SDS011;25963;42.694;23.600;2023-05-24T10:13:42;7.95;;;3.80;;
40244;SDS011;25963;42.694;23.600;2023-05-24T10:16:08;7.60;;;3.47;;
40244;SDS011;25963;42.694;23.600;2023-05-24T10:18:34;5.35;;;3.72;;
40244;SDS011;25963;42.694;23.600;2023-05-24T10:20:59;4.70;;;3.88;;
40244;SDS011;25963;42.694;23.600;2023-05-24T10:23:28;6.38;;;3.80;;
40244;SDS011;25963;42.694;23.600;2023-05-24T10:25:58;4.18;;;3.38;;
40244;SDS011;25963;42.694;23.600;2023-05-24T10:28:37;4.53;;;2.72;;
40244;SDS011;25963;42.694;23.600;2023-05-24T10:31:30;4.15;;;3.45;;
40244;SDS011;25963;42.694;23.600;2023-05-24T10:34:07;5.32;;;3.47;;
40244;SDS011;25963;42.694;23.600;2023-05-24T10:37:16;5.35;;;3.42;;
40244;SDS011;25963;42.694;23.600;2023-05-24T10:39:42;3.97;;;3.55;;
40244;SDS011;25963;42.694;23.600;2023-05-24T10:42:07;3.20;;;2.90;;
40244;SDS011;25963;42.694;23.600;2023-05-24T10:44:33;5.03;;;3.70;;
40244;SDS011;25963;42.694;23.600;2023-05-24T10:47:12;6.65;;;3.88;;
40244;SDS011;25963;42.694;23.600;2023-05-24T10:50:00;3.70;;;3.33;;
40244;SDS011;25963;42.694;23.600;2023-05-24T10:52:40;4.70;;;3.10;;
40244;SDS011;25963;42.694;23.600;2023-05-24T10:55:06;8.32;;;3.10;;
40244;SDS011;25963;42.694;23.600;2023-05-24T10:57:33;4.50;;;3.45;;
40244;SDS011;25963;42.694;23.600;2023-05-24T11:02:59;5.57;;;3.20;;
40244;SDS011;25963;42.694;23.600;2023-05-24T11:05:53;4.28;;;3.45;;
40244;SDS011;25963;42.694;23.600;2023-05-24T11:08:31;5.50;;;3.25;;
40244;SDS011;25963;42.694;23.600;2023-05-24T11:13:45;3.90;;;3.15;;
40244;SDS011;25963;42.694;23.600;2023-05-24T11:16:31;5.05;;;3.47;;
40244;SDS011;25963;42.694;23.600;2023-05-24T11:19:03;5.15;;;3.10;;
40244;SDS011;25963;42.694;23.600;2023-05-24T11:21:42;6.40;;;3.08;;
40244;SDS011;25963;42.694;23.600;2023-05-24T11:24:10;4.38;;;3.63;;
40244;SDS011;25963;42.694;23.600;2023-05-24T11:26:36;5.13;;;3.33;;
40244;SDS011;25963;42.694;23.600;2023-05-24T11:29:02;6.40;;;3.80;;
40244;SDS011;25963;42.694;23.600;2023-05-24T11:31:29;4.93;;;4.22;;
40244;SDS011;25963;42.694;23.600;2023-05-24T11:33:55;7.30;;;2.97;;
40244;SDS011;25963;42.694;23.600;2023-05-24T11:36:21;4.00;;;3.65;;
40244;SDS011;25963;42.694;23.600;2023-05-24T11:38:46;4.90;;;3.70;;
40244;SDS011;25963;42.694;23.600;2023-05-24T11:41:15;8.02;;;4.03;;
40244;SDS011;25963;42.694;23.600;2023-05-24T11:43:41;3.92;;;3.45;;
40244;SDS011;25963;42.694;23.600;2023-05-24T11:46:07;6.97;;;3.63;;
40244;SDS011;25963;42.694;23.600;2023-05-24T11:48:32;4.22;;;3.80;;
40244;SDS011;25963;42.694;23.600;2023-05-24T11:50:58;5.05;;;3.60;;
40244;SDS011;25963;42.694;23.600;2023-05-24T11:53:24;5.47;;;3.60;;
40244;SDS011;25963;42.694;23.600;2023-05-24T11:55:51;3.45;;;3.15;;
40244;SDS011;25963;42.694;23.600;2023-05-24T11:58:21;6.07;;;3.35;;
40244;SDS011;25963;42.694;23.600;2023-05-24T12:00:48;6.63;;;3.43;;
40244;SDS011;25963;42.694;23.600;2023-05-24T12:03:15;3.83;;;3.42;;
40244;SDS011;25963;42.694;23.600;2023-05-24T12:05:41;6.35;;;3.40;;
40244;SDS011;25963;42.694;23.600;2023-05-24T12:08:08;6.05;;;3.33;;
40244;SDS011;25963;42.694;23.600;2023-05-24T12:10:37;6.35;;;4.10;;
40244;SDS011;25963;42.694;23.600;2023-05-24T12:13:20;5.10;;;4.00;;
40244;SDS011;25963;42.694;23.600;2023-05-24T12:15:53;5.05;;;3.40;;
40244;SDS011;25963;42.694;23.600;2023-05-24T12:18:20;4.70;;;3.85;;
40244;SDS011;25963;42.694;23.600;2023-05-24T12:20:47;7.57;;;3.25;;
40244;SDS011;25963;42.694;23.600;2023-05-24T12:23:13;5.63;;;3.42;;
40244;SDS011;25963;42.694;23.600;2023-05-24T12:25:39;5.03;;;3.88;;
40244;SDS011;25963;42.694;23.600;2023-05-24T12:28:05;4.90;;;3.42;;
40244;SDS011;25963;42.694;23.600;2023-05-24T12:30:30;6.68;;;3.40;;
40244;SDS011;25963;42.694;23.600;2023-05-24T12:32:56;4.50;;;3.15;;
40244;SDS011;25963;42.694;23.600;2023-05-24T12:35:21;4.47;;;3.38;;
40244;SDS011;25963;42.694;23.600;2023-05-24T12:37:48;5.60;;;2.80;;
40244;SDS011;25963;42.694;23.600;2023-05-24T12:40:22;4.13;;;2.78;;
40244;SDS011;25963;42.694;23.600;2023-05-24T12:42:54;5.28;;;3.03;;
40244;SDS011;25963;42.694;23.600;2023-05-24T12:45:25;3.30;;;3.00;;
40244;SDS011;25963;42.694;23.600;2023-05-24T12:47:55;5.38;;;2.53;;
40244;SDS011;25963;42.694;23.600;2023-05-24T12:50:23;4.00;;;2.83;;
40244;SDS011;25963;42.694;23.600;2023-05-24T12:52:50;4.55;;;3.35;;
40244;SDS011;25963;42.694;23.600;2023-05-24T12:55:24;7.28;;;3.20;;
40244;SDS011;25963;42.694;23.600;2023-05-24T12:57:50;5.13;;;3.40;;
40244;SDS011;25963;42.694;23.600;2023-05-24T13:00:18;4.47;;;3.10;;
40244;SDS011;25963;42.694;23.600;2023-05-24T13:02:45;4.75;;;2.92;;
40244;SDS011;25963;42.694;23.600;2023-05-24T13:05:11;3.28;;;2.85;;
40244;SDS011;25963;42.694;23.600;2023-05-24T13:07:37;3.97;;;3.28;;
40244;SDS011;25963;42.694;23.600;2023-05-24T13:10:08;3.55;;;2.92;;
40244;SDS011;25963;42.694;23.600;2023-05-24T13:12:33;5.60;;;3.83;;
40244;SDS011;25963;42.694;23.600;2023-05-24T13:14:59;4.38;;;3.45;;
40244;SDS011;25963;42.694;23.600;2023-05-24T13:17:25;5.50;;;3.67;;
40244;SDS011;25963;42.694;23.600;2023-05-24T13:19:51;3.85;;;3.38;;
40244;SDS011;25963;42.694;23.600;2023-05-24T13:22:17;4.93;;;2.67;;
40244;SDS011;25963;42.694;23.600;2023-05-24T13:24:42;4.60;;;3.03;;
40244;SDS011;25963;42.694;23.600;2023-05-24T13:27:08;5.32;;;3.15;;
40244;SDS011;25963;42.694;23.600;2023-05-24T13:29:34;5.07;;;3.38;;
40244;SDS011;25963;42.694;23.600;2023-05-24T13:31:59;4.72;;;3.22;;
40244;SDS011;25963;42.694;23.600;2023-05-24T13:34:25;5.93;;;3.53;;
40244;SDS011;25963;42.694;23.600;2023-05-24T13:36:51;6.25;;;3.55;;
40244;SDS011;25963;42.694;23.600;2023-05-24T13:39:18;6.10;;;3.28;;
40244;SDS011;25963;42.694;23.600;2023-05-24T13:41:46;4.57;;;3.20;;
40244;SDS011;25963;42.694;23.600;2023-05-24T13:44:15;4.50;;;3.33;;
40244;SDS011;25963;42.694;23.600;2023-05-24T13:46:41;4.07;;;3.10;;
40244;SDS011;25963;42.694;23.600;2023-05-24T13:49:11;4.93;;;3.55;;
40244;SDS011;25963;42.694;23.600;2023-05-24T13:51:37;6.47;;;3.92;;
40244;SDS011;25963;42.694;23.600;2023-05-24T13:54:03;3.65;;;3.25;;
40244;SDS011;25963;42.694;23.600;2023-05-24T13:56:38;7.38;;;3.40;;
40244;SDS011;25963;42.694;23.600;2023-05-24T13:59:04;4.40;;;3.17;;
40244;SDS011;25963;42.694;23.600;2023-05-24T14:01:31;4.03;;;2.95;;
40244;SDS011;25963;42.694;23.600;2023-05-24T14:03:57;4.85;;;3.00;;
40244;SDS011;25963;42.694;23.600;2023-05-24T14:06:26;3.90;;;3.33;;
40244;SDS011;25963;42.694;23.600;2023-05-24T14:08:51;3.55;;;2.92;;
40244;SDS011;25963;42.694;23.600;2023-05-24T14:11:17;3.50;;;3.08;;
40244;SDS011;25963;42.694;23.600;2023-05-24T14:13:43;6.88;;;3.10;;
40244;SDS011;25963;42.694;23.600;2023-05-24T14:16:09;6.93;;;3.10;;
40244;SDS011;25963;42.694;23.600;2023-05-24T14:18:35;5.43;;;3.28;;
40244;SDS011;25963;42.694;23.600;2023-05-24T14:21:03;6.50;;;3.58;;
40244;SDS011;25963;42.694;23.600;2023-05-24T14:23:29;4.88;;;3.15;;
40244;SDS011;25963;42.694;23.600;2023-05-24T14:25:57;5.90;;;3.40;;
40244;SDS011;25963;42.694;23.600;2023-05-24T14:28:26;6.63;;;3.03;;
40244;SDS011;25963;42.694;23.600;2023-05-24T14:30:52;5.85;;;3.80;;
40244;SDS011;25963;42.694;23.600;2023-05-24T14:33:17;7.22;;;3.42;;
40244;SDS011;25963;42.694;23.600;2023-05-24T14:35:43;5.13;;;3.00;;
40244;SDS011;25963;42.694;23.600;2023-05-24T14:38:09;7.40;;;4.95;;
40244;SDS011;25963;42.694;23.600;2023-05-24T14:40:35;5.75;;;3.58;;
40244;SDS011;25963;42.694;23.600;2023-05-24T14:43:03;4.80;;;3.35;;
40244;SDS011;25963;42.694;23.600;2023-05-24T14:45:29;8.43;;;5.50;;
40244;SDS011;25963;42.694;23.600;2023-05-24T14:47:54;5.50;;;3.70;;
40244;SDS011;25963;42.694;23.600;2023-05-24T14:50:21;6.70;;;3.83;;
40244;SDS011;25963;42.694;23.600;2023-05-24T14:52:46;4.15;;;3.05;;
40244;SDS011;25963;42.694;23.600;2023-05-24T14:55:12;6.03;;;3.58;;
40244;SDS011;25963;42.694;23.600;2023-05-24T14:57:38;4.35;;;3.30;;
40244;SDS011;25963;42.694;23.600;2023-05-24T15:00:04;4.47;;;3.20;;
40244;SDS011;25963;42.694;23.600;2023-05-24T15:02:30;4.95;;;3.10;;
40244;SDS011;25963;42.694;23.600;2023-05-24T15:04:58;4.57;;;3.83;;